Time;durP1;ratioP1;P1;durP2;ratioP2;P2;SDS_P1;SDS_P2;PMS_P1;PMS_P2;Temp;Humidity;BMP_temperature;BMP_pressure;BME280_temperature;BME280_humidity;BME280_pressure;Samples;Min_cycle;Max_cycle;Signal;HPM_P1;HPM_P2
2023/04/19 00:00:42;;;;;;;8.07;6.00;;;;;;;;;;4871348;29;20032;-76
2023/04/19 00:03:10;;;;;;;8.55;5.85;;;;;;;;;;4856723;29;20029;-78
2023/04/19 00:05:40;;;;;;;7.57;5.47;;;;;;;;;;4869393;29;20375;-77
2023/04/19 00:08:07;;;;;;;10.48;5.95;;;;;;;;;;4846014;29;20196;-77
2023/04/19 00:10:38;;;;;;;7.15;5.57;;;;;;;;;;4853531;29;20467;-79
2023/04/19 00:13:04;;;;;;;8.23;6.28;;;;;;;;;;4848386;29;20112;-79
2023/04/19 00:15:31;;;;;;;10.20;6.03;;;;;;;;;;4847996;29;20025;-78
2023/04/19 00:17:57;;;;;;;9.05;5.88;;;;;;;;;;4847420;29;20029;-78
2023/04/19 00:20:23;;;;;;;10.90;6.05;;;;;;;;;;4850896;29;20034;-78
2023/04/19 00:22:49;;;;;;;8.45;5.97;;;;;;;;;;4868683;29;20084;-78
2023/04/19 00:25:15;;;;;;;9.95;5.95;;;;;;;;;;4869780;29;20033;-78
2023/04/19 00:27:41;;;;;;;9.18;5.72;;;;;;;;;;4836898;29;20048;-75
2023/04/19 00:30:08;;;;;;;8.07;5.88;;;;;;;;;;4872822;29;20021;-76
2023/04/19 00:32:34;;;;;;;8.50;5.45;;;;;;;;;;4848473;29;20033;-76
2023/04/19 00:35:00;;;;;;;8.57;6.10;;;;;;;;;;4868656;29;20090;-76
2023/04/19 00:37:26;;;;;;;9.57;6.43;;;;;;;;;;4870650;29;20494;-76
2023/04/19 00:39:52;;;;;;;8.10;5.60;;;;;;;;;;4857640;29;20395;-75
2023/04/19 00:42:18;;;;;;;7.53;5.53;;;;;;;;;;4840580;29;20029;-76
2023/04/19 00:44:44;;;;;;;8.60;5.70;;;;;;;;;;4855150;29;20037;-76
2023/04/19 00:47:11;;;;;;;9.55;6.53;;;;;;;;;;4853627;29;20443;-76
2023/04/19 00:49:37;;;;;;;9.18;5.70;;;;;;;;;;4852573;29;20081;-76
2023/04/19 00:52:03;;;;;;;8.27;5.55;;;;;;;;;;4852386;29;20118;-75
2023/04/19 00:54:29;;;;;;;8.85;5.88;;;;;;;;;;4848606;29;20043;-75
2023/04/19 00:56:56;;;;;;;7.13;5.72;;;;;;;;;;4840356;29;20032;-78
2023/04/19 00:59:22;;;;;;;6.78;5.20;;;;;;;;;;4859726;29;20096;-75
2023/04/19 01:01:48;;;;;;;9.75;6.43;;;;;;;;;;4857715;29;20083;-75
2023/04/19 01:04:15;;;;;;;7.35;5.88;;;;;;;;;;4850168;29;20081;-76
2023/04/19 01:06:44;;;;;;;9.48;5.60;;;;;;;;;;4865204;29;20028;-75
2023/04/19 01:09:10;;;;;;;8.63;6.63;;;;;;;;;;4870926;29;20030;-77
2023/04/19 01:11:36;;;;;;;8.95;5.50;;;;;;;;;;4867668;29;20390;-77
2023/04/19 01:14:03;;;;;;;6.85;5.45;;;;;;;;;;4864483;29;20485;-76
2023/04/19 01:16:32;;;;;;;9.07;6.07;;;;;;;;;;4855371;29;20585;-76
2023/04/19 01:18:58;;;;;;;7.43;5.68;;;;;;;;;;4851160;29;20030;-75
2023/04/19 01:21:24;;;;;;;7.80;5.32;;;;;;;;;;4856178;29;20048;-75
2023/04/19 01:23:51;;;;;;;10.23;6.20;;;;;;;;;;4852091;29;20057;-75
2023/04/19 01:26:18;;;;;;;9.90;5.95;;;;;;;;;;4840774;29;20037;-75
2023/04/19 01:28:44;;;;;;;8.57;6.05;;;;;;;;;;4855251;29;20363;-75
2023/04/19 01:31:11;;;;;;;7.75;5.68;;;;;;;;;;4858016;29;20026;-76
2023/04/19 01:33:37;;;;;;;9.50;5.40;;;;;;;;;;4851287;29;20488;-75
2023/04/19 01:36:03;;;;;;;8.13;5.80;;;;;;;;;;4869434;29;20021;-76
2023/04/19 01:38:29;;;;;;;12.32;6.28;;;;;;;;;;4856300;29;20096;-76
2023/04/19 01:40:58;;;;;;;8.68;6.25;;;;;;;;;;4870341;29;20089;-77
2023/04/19 01:43:24;;;;;;;8.55;5.80;;;;;;;;;;4854146;29;20029;-76
2023/04/19 01:45:50;;;;;;;9.57;6.25;;;;;;;;;;4858400;29;20116;-76
2023/04/19 01:48:16;;;;;;;11.50;6.25;;;;;;;;;;4835248;29;20041;-76
2023/04/19 01:50:42;;;;;;;16.38;6.50;;;;;;;;;;4873674;29;20113;-76
2023/04/19 01:53:09;;;;;;;10.82;6.85;;;;;;;;;;4870759;29;20498;-77
2023/04/19 01:55:35;;;;;;;8.90;6.00;;;;;;;;;;4854451;29;20034;-75
2023/04/19 01:58:04;;;;;;;8.05;6.72;;;;;;;;;;4833526;29;20029;-76
2023/04/19 02:00:30;;;;;;;10.93;7.43;;;;;;;;;;4855987;29;20053;-75
2023/04/19 02:02:56;;;;;;;12.75;7.50;;;;;;;;;;4857086;29;20483;-76
2023/04/19 02:05:22;;;;;;;13.07;7.20;;;;;;;;;;4856972;29;20029;-76
2023/04/19 02:07:48;;;;;;;10.57;7.80;;;;;;;;;;4849594;29;20082;-76
2023/04/19 02:10:15;;;;;;;11.63;8.45;;;;;;;;;;4852950;29;20120;-76
2023/04/19 02:12:41;;;;;;;14.23;7.85;;;;;;;;;;4865429;29;20120;-77
2023/04/19 02:15:08;;;;;;;14.35;8.07;;;;;;;;;;4868006;29;20037;-76
2023/04/19 02:17:34;;;;;;;12.07;8.38;;;;;;;;;;4858277;29;20408;-76
2023/04/19 02:20:01;;;;;;;14.25;9.20;;;;;;;;;;4845682;29;20040;-76
2023/04/19 02:22:27;;;;;;;12.95;8.30;;;;;;;;;;4857096;29;20183;-75
2023/04/19 02:24:53;;;;;;;11.50;8.10;;;;;;;;;;4854936;29;20025;-75
2023/04/19 02:27:19;;;;;;;11.93;8.25;;;;;;;;;;4874222;29;20032;-76
2023/04/19 02:29:45;;;;;;;14.02;8.98;;;;;;;;;;4841543;29;20354;-76
2023/04/19 02:32:12;;;;;;;14.68;8.90;;;;;;;;;;4864963;29;20021;-76
2023/04/19 02:34:38;;;;;;;10.77;7.97;;;;;;;;;;4854670;29;20025;-75
2023/04/19 02:37:04;;;;;;;17.42;8.48;;;;;;;;;;4872252;29;20383;-75
2023/04/19 02:39:31;;;;;;;12.65;8.00;;;;;;;;;;4844347;29;20080;-76
2023/04/19 02:41:57;;;;;;;14.52;9.98;;;;;;;;;;4853815;29;20475;-75
2023/04/19 02:44:23;;;;;;;14.38;8.90;;;;;;;;;;4864852;29;20036;-75
2023/04/19 02:46:52;;;;;;;20.42;8.02;;;;;;;;;;4865290;29;20036;-75
2023/04/19 02:49:18;;;;;;;14.45;9.30;;;;;;;;;;4861298;29;20025;-75
2023/04/19 02:51:44;;;;;;;12.75;8.30;;;;;;;;;;4855699;29;20128;-75
2023/04/19 02:54:11;;;;;;;18.42;9.05;;;;;;;;;;4856197;29;20036;-76
2023/04/19 02:56:37;;;;;;;10.85;8.40;;;;;;;;;;4855016;29;20029;-75
2023/04/19 02:59:04;;;;;;;12.27;8.02;;;;;;;;;;4871652;29;20025;-76
2023/04/19 03:01:30;;;;;;;11.55;8.43;;;;;;;;;;4852895;29;20374;-75
2023/04/19 06:38:19;;;;;;;4.05;2.75;;;;;;;;;;4840166;29;20201;-76
2023/04/19 06:40:45;;;;;;;3.92;2.67;;;;;;;;;;4829805;29;20065;-75
2023/04/19 06:43:11;;;;;;;5.90;3.05;;;;;;;;;;4845893;29;20045;-76
2023/04/19 06:45:37;;;;;;;5.10;2.92;;;;;;;;;;4851269;29;20641;-74
2023/04/19 06:48:03;;;;;;;8.02;2.63;;;;;;;;;;4865845;29;20044;-77
2023/04/19 06:50:30;;;;;;;5.55;4.10;;;;;;;;;;4854817;29;20466;-76
2023/04/19 06:52:56;;;;;;;4.28;2.45;;;;;;;;;;4874715;29;20025;-76
2023/04/19 06:55:22;;;;;;;7.15;3.53;;;;;;;;;;4864679;29;20483;-73
2023/04/19 06:57:48;;;;;;;5.65;2.80;;;;;;;;;;4856054;29;20467;-74
2023/04/19 07:00:15;;;;;;;7.25;2.78;;;;;;;;;;4842691;29;20064;-72
2023/04/19 07:02:41;;;;;;;3.63;2.35;;;;;;;;;;4857499;29;20455;-77
2023/04/19 07:05:08;;;;;;;5.22;2.42;;;;;;;;;;4866993;29;20513;-75
2023/04/19 07:07:36;;;;;;;4.82;2.42;;;;;;;;;;4855309;29;20048;-74
2023/04/19 07:10:02;;;;;;;5.00;2.70;;;;;;;;;;4836610;29;20121;-77
2023/04/19 07:12:28;;;;;;;5.32;2.60;;;;;;;;;;4868607;29;20042;-75
2023/04/19 07:14:56;;;;;;;5.32;2.28;;;;;;;;;;4839528;29;20094;-74
2023/04/19 07:17:24;;;;;;;4.28;2.40;;;;;;;;;;4840870;29;20056;-76
2023/04/19 07:19:50;;;;;;;5.93;2.13;;;;;;;;;;4850744;29;20041;-79
2023/04/19 07:22:16;;;;;;;3.35;2.13;;;;;;;;;;4838290;29;20503;-76
2023/04/19 07:24:43;;;;;;;3.10;1.90;;;;;;;;;;4855887;29;20042;-76
2023/04/19 07:27:09;;;;;;;5.50;1.92;;;;;;;;;;4844960;29;20025;-76
2023/04/19 07:29:36;;;;;;;2.33;1.70;;;;;;;;;;4872999;29;20497;-77
2023/04/19 07:32:02;;;;;;;2.42;1.52;;;;;;;;;;4852606;29;20025;-78
2023/04/19 07:34:41;;;;;;;;;;;;;;;;;;;;;
2023/04/19 07:37:07;;;;;;;6.35;1.80;;;;;;;;;;4860423;29;20052;-76
2023/04/19 07:39:33;;;;;;;3.70;2.00;;;;;;;;;;4864393;29;20058;-72
2023/04/19 07:42:00;;;;;;;4.47;1.83;;;;;;;;;;4845188;29;20392;-73
2023/04/19 07:44:26;;;;;;;4.38;3.33;;;;;;;;;;4850938;29;20045;-72
2023/04/19 07:46:52;;;;;;;9.27;5.68;;;;;;;;;;4857236;29;20082;-72
2023/04/19 07:49:18;;;;;;;4.50;1.85;;;;;;;;;;4857044;29;20052;-71
2023/04/19 07:51:45;;;;;;;4.03;1.73;;;;;;;;;;4832799;29;20029;-73
2023/04/19 07:54:11;;;;;;;2.58;1.40;;;;;;;;;;4850118;29;20032;-78
2023/04/19 07:56:37;;;;;;;4.82;1.65;;;;;;;;;;4836921;29;20037;-75
2023/04/19 07:59:03;;;;;;;2.35;1.45;;;;;;;;;;4867666;29;20480;-76
2023/04/19 08:01:29;;;;;;;3.47;1.60;;;;;;;;;;4867999;29;20037;-71
2023/04/19 08:03:56;;;;;;;1.70;1.40;;;;;;;;;;4863541;29;20056;-72
2023/04/19 08:18:36;;;;;;;2.90;1.73;;;;;;;;;;4851625;29;20052;-72
2023/04/19 08:21:03;;;;;;;6.78;1.70;;;;;;;;;;4878879;29;20121;-74
2023/04/19 08:23:29;;;;;;;2.95;1.60;;;;;;;;;;4854929;29;20032;-71
2023/04/19 08:25:55;;;;;;;1.75;1.65;;;;;;;;;;4868636;29;20042;-72
2023/04/19 08:28:21;;;;;;;2.45;1.60;;;;;;;;;;4850449;29;20380;-73
2023/04/19 08:30:48;;;;;;;3.45;1.63;;;;;;;;;;4851591;29;20049;-74
2023/04/19 08:33:14;;;;;;;4.90;2.22;;;;;;;;;;4863905;29;20033;-73
2023/04/19 08:35:41;;;;;;;2.05;1.52;;;;;;;;;;4853730;29;20033;-73
2023/04/19 08:38:07;;;;;;;2.13;1.63;;;;;;;;;;4872166;29;20033;-72
2023/04/19 08:40:33;;;;;;;6.28;2.15;;;;;;;;;;4865937;29;20153;-73
2023/04/19 08:43:04;;;;;;;5.70;1.70;;;;;;;;;;4874145;29;20395;-74
2023/04/19 08:45:31;;;;;;;2.80;1.67;;;;;;;;;;4864491;29;20112;-75
2023/04/19 08:47:58;;;;;;;3.88;1.77;;;;;;;;;;4864686;29;20100;-74
2023/04/19 08:50:25;;;;;;;3.15;1.77;;;;;;;;;;4861703;29;20102;-74
2023/04/19 08:52:51;;;;;;;5.00;1.88;;;;;;;;;;4857429;29;20038;-70
2023/04/19 08:55:17;;;;;;;9.43;5.63;;;;;;;;;;4846308;29;20070;-73
2023/04/19 08:57:43;;;;;;;5.13;2.97;;;;;;;;;;4861984;29;20037;-72
2023/04/19 09:00:10;;;;;;;5.70;2.53;;;;;;;;;;4856130;29;20041;-74
2023/04/19 09:02:49;;;;;;;3.28;1.73;;;;;;;;;;4872572;29;20109;-75
2023/04/19 09:05:16;;;;;;;3.50;1.80;;;;;;;;;;4864638;29;20429;-74
2023/04/19 09:07:43;;;;;;;2.30;1.65;;;;;;;;;;4852813;29;20034;-77
2023/04/19 09:10:13;;;;;;;2.72;1.55;;;;;;;;;;4864548;29;20037;-74
2023/04/19 09:12:40;;;;;;;4.22;1.95;;;;;;;;;;4851865;29;20029;-76
2023/04/19 09:15:10;;;;;;;5.68;2.60;;;;;;;;;;4843060;29;20121;-75
2023/04/19 09:17:36;;;;;;;4.57;1.77;;;;;;;;;;4879257;29;20135;-74
2023/04/19 09:20:03;;;;;;;5.07;1.63;;;;;;;;;;4858375;29;20121;-75
2023/04/19 09:22:29;;;;;;;2.78;1.92;;;;;;;;;;4843945;29;20041;-74
2023/04/19 09:24:56;;;;;;;5.47;1.92;;;;;;;;;;4861541;29;20034;-73
2023/04/19 09:27:29;;;;;;;1.83;1.20;;;;;;;;;;4867028;29;20084;-72
2023/04/19 09:29:56;;;;;;;4.53;2.78;;;;;;;;;;4853448;29;20078;-74
2023/04/19 09:32:22;;;;;;;3.88;1.92;;;;;;;;;;4837220;29;20068;-75
2023/04/19 09:34:59;;;;;;;7.78;1.77;;;;;;;;;;4860778;29;20026;-72
2023/04/19 09:37:25;;;;;;;2.00;1.10;;;;;;;;;;4858871;29;20025;-70
2023/04/19 09:39:52;;;;;;;3.63;1.45;;;;;;;;;;4857260;29;20084;-74
2023/04/19 09:42:19;;;;;;;1.70;1.30;;;;;;;;;;4862847;29;20085;-73
2023/04/19 09:45:00;;;;;;;3.15;1.50;;;;;;;;;;4844106;29;20029;-73
2023/04/19 09:47:28;;;;;;;2.05;1.17;;;;;;;;;;4858081;29;20033;-75
2023/04/19 09:50:24;;;;;;;2.55;1.38;;;;;;;;;;4868252;29;20420;-75
2023/04/19 09:52:51;;;;;;;1.50;1.13;;;;;;;;;;4854905;29;20132;-75
2023/04/19 09:55:19;;;;;;;1.95;1.35;;;;;;;;;;4868567;29;20029;-75
2023/04/19 09:57:45;;;;;;;2.25;1.30;;;;;;;;;;4861002;29;20400;-77
2023/04/19 10:03:15;;;;;;;1.77;1.10;;;;;;;;;;4859617;29;20040;-76
2023/04/19 10:08:45;;;;;;;5.55;3.67;;;;;;;;;;4864896;29;20047;-79
2023/04/19 10:11:12;;;;;;;3.20;1.10;;;;;;;;;;4859743;29;20037;-79
2023/04/19 10:13:39;;;;;;;2.33;1.38;;;;;;;;;;4847374;29;20026;-74
2023/04/19 10:16:05;;;;;;;3.55;1.33;;;;;;;;;;4854423;29;20482;-76
2023/04/19 10:18:31;;;;;;;1.40;1.00;;;;;;;;;;4839652;29;20042;-76
2023/04/19 10:21:07;;;;;;;6.53;1.60;;;;;;;;;;4837260;29;20042;-77
2023/04/19 10:23:33;;;;;;;2.33;1.13;;;;;;;;;;4857499;29;20074;-77
2023/04/19 10:26:00;;;;;;;2.80;1.50;;;;;;;;;;4852230;29;20125;-76
2023/04/19 10:28:29;;;;;;;1.50;1.00;;;;;;;;;;4856645;29;20520;-77
2023/04/19 10:31:03;;;;;;;1.67;1.00;;;;;;;;;;4851087;29;20416;-78
2023/04/19 10:33:36;;;;;;;0.88;0.88;;;;;;;;;;4838543;29;20483;-77
2023/04/19 10:36:02;;;;;;;1.17;1.00;;;;;;;;;;4838933;29;20045;-78
2023/04/19 10:38:36;;;;;;;1.75;0.70;;;;;;;;;;4856168;29;20076;-77
2023/04/19 10:41:10;;;;;;;3.38;0.93;;;;;;;;;;4849913;29;20033;-80
2023/04/19 10:43:37;;;;;;;3.30;1.17;;;;;;;;;;4871425;29;20037;-79
2023/04/19 10:46:30;;;;;;;2.17;1.20;;;;;;;;;;4870707;29;20042;-82
2023/04/19 10:48:57;;;;;;;1.77;1.20;;;;;;;;;;4839598;29;20186;-79
2023/04/19 10:51:27;;;;;;;1.30;1.10;;;;;;;;;;4853411;29;20040;-77
2023/04/19 10:54:02;;;;;;;4.10;1.75;;;;;;;;;;4839344;29;20046;-77
2023/04/19 10:56:34;;;;;;;3.08;0.90;;;;;;;;;;4848918;29;20390;-77
2023/04/19 10:59:07;;;;;;;1.58;1.10;;;;;;;;;;4856719;29;20033;-76
2023/04/19 11:01:38;;;;;;;;;;;;;;;;;;4857071;29;20404;-77
2023/04/19 11:04:04;;;;;;;2.60;1.02;;;;;;;;;;4871907;29;20347;-78
2023/04/19 11:06:30;;;;;;;1.95;1.00;;;;;;;;;;4850237;29;20048;-79
2023/04/19 11:08:56;;;;;;;7.82;4.82;;;;;;;;;;4834495;29;20033;-82
2023/04/19 11:11:26;;;;;;;8.90;4.10;;;;;;;;;;4879995;29;20037;-82
2023/04/19 11:13:55;;;;;;;3.13;0.90;;;;;;;;;;4848799;29;20528;-83
2023/04/19 14:10:27;;;;;;;6.47;2.38;;;;;;;;;;4854492;29;20047;-80
2023/04/19 14:12:57;;;;;;;5.22;2.53;;;;;;;;;;4857804;29;20061;-83
2023/04/19 14:15:24;;;;;;;8.02;2.20;;;;;;;;;;4857795;29;20392;-83
2023/04/19 14:36:59;;;;;;;5.57;2.40;;;;;;;;;;4382370;29;20058;-79
2023/04/19 14:39:25;;;;;;;5.63;2.53;;;;;;;;;;4803929;29;20522;-77
2023/04/19 14:41:51;;;;;;;4.13;2.67;;;;;;;;;;4794024;29;20038;-79
2023/04/19 14:44:17;;;;;;;2.95;2.13;;;;;;;;;;4821259;29;20084;-76
2023/04/19 14:46:44;;;;;;;13.60;6.55;;;;;;;;;;4810989;29;20034;-72
2023/04/19 14:49:10;;;;;;;9.40;3.70;;;;;;;;;;4802349;29;20042;-73
2023/04/19 14:51:36;;;;;;;5.78;2.25;;;;;;;;;;4819695;29;20038;-72
2023/04/19 14:54:02;;;;;;;7.57;2.75;;;;;;;;;;4796192;29;20023;-75
2023/04/19 14:56:28;;;;;;;3.53;2.03;;;;;;;;;;4807143;29;20045;-72
2023/04/19 14:58:54;;;;;;;2.85;2.30;;;;;;;;;;4784413;29;20061;-75
2023/04/19 15:01:22;;;;;;;4.47;2.70;;;;;;;;;;4806928;29;20491;-74
2023/04/19 15:03:50;;;;;;;7.55;2.42;;;;;;;;;;4801915;29;20485;-74
2023/04/19 15:06:16;;;;;;;6.72;2.75;;;;;;;;;;4801858;29;20350;-73
2023/04/19 15:08:42;;;;;;;6.30;2.72;;;;;;;;;;4815371;29;20500;-73
2023/04/19 15:11:09;;;;;;;4.72;2.60;;;;;;;;;;4788792;29;20045;-76
2023/04/19 15:13:35;;;;;;;7.70;2.80;;;;;;;;;;4802188;29;20087;-76
2023/04/19 15:16:02;;;;;;;4.22;2.53;;;;;;;;;;4816246;29;20034;-72
2023/04/19 15:18:28;;;;;;;5.57;2.38;;;;;;;;;;4819694;29;20049;-74
2023/04/19 15:20:55;;;;;;;4.93;2.42;;;;;;;;;;4789735;29;20046;-74
2023/04/19 15:23:23;;;;;;;4.70;2.22;;;;;;;;;;4799535;29;20038;-74
2023/04/19 15:25:49;;;;;;;9.75;2.70;;;;;;;;;;4801697;29;20036;-74
2023/04/19 15:28:15;;;;;;;4.72;1.92;;;;;;;;;;4801924;29;20039;-73
2023/04/19 15:30:41;;;;;;;6.93;2.53;;;;;;;;;;4805566;29;20027;-73
2023/04/19 15:33:07;;;;;;;3.35;2.33;;;;;;;;;;4814709;29;20090;-75
2023/04/19 15:35:34;;;;;;;4.90;2.45;;;;;;;;;;4821061;29;20417;-75
2023/04/19 15:38:00;;;;;;;2.58;1.70;;;;;;;;;;4852029;29;20137;-76
2023/04/19 15:40:28;;;;;;;4.55;2.40;;;;;;;;;;4843698;29;20036;-74
2023/04/19 15:42:54;;;;;;;6.10;2.40;;;;;;;;;;4849421;29;20469;-76
2023/04/19 15:45:21;;;;;;;4.93;2.00;;;;;;;;;;4827183;29;20026;-75
2023/04/19 15:47:47;;;;;;;5.30;2.40;;;;;;;;;;4834822;29;20030;-76
2023/04/19 15:50:13;;;;;;;3.58;2.00;;;;;;;;;;4838923;29;20045;-74
2023/04/19 15:52:40;;;;;;;5.38;2.00;;;;;;;;;;4833848;29;20062;-74
2023/04/19 15:55:06;;;;;;;4.78;1.90;;;;;;;;;;4836428;29;20551;-76
2023/04/19 15:57:32;;;;;;;11.65;6.18;;;;;;;;;;4823460;29;20095;-76
2023/04/19 15:59:58;;;;;;;5.32;2.25;;;;;;;;;;4833132;29;20038;-80
2023/04/19 16:02:30;;;;;;;5.65;1.85;;;;;;;;;;4833256;29;20057;-81
2023/04/19 16:04:56;;;;;;;4.70;1.80;;;;;;;;;;4826522;29;20057;-75
2023/04/19 16:07:22;;;;;;;3.33;1.67;;;;;;;;;;4823147;29;20034;-75
2023/04/19 16:09:48;;;;;;;6.43;1.90;;;;;;;;;;4821188;29;20046;-74
2023/04/19 16:12:14;;;;;;;5.82;1.88;;;;;;;;;;4834861;29;20030;-74
2023/04/19 16:14:40;;;;;;;10.20;1.42;;;;;;;;;;4836304;29;20037;-76
2023/04/19 16:17:06;;;;;;;3.42;1.77;;;;;;;;;;4826998;29;20048;-76
2023/04/19 16:19:32;;;;;;;4.50;1.88;;;;;;;;;;4828918;29;20049;-76
2023/04/19 16:22:01;;;;;;;5.93;1.95;;;;;;;;;;4833795;29;20040;-75
2023/04/19 16:24:27;;;;;;;8.50;2.20;;;;;;;;;;4832287;29;20032;-75
2023/04/19 16:26:53;;;;;;;4.43;1.80;;;;;;;;;;4839571;29;20143;-81
2023/04/19 16:29:20;;;;;;;2.92;1.48;;;;;;;;;;4847286;29;20082;-77
2023/04/19 16:31:46;;;;;;;5.88;1.77;;;;;;;;;;4823869;29;20476;-74
2023/04/19 16:34:12;;;;;;;5.13;1.77;;;;;;;;;;4827357;29;20069;-76
2023/04/19 16:36:39;;;;;;;3.95;2.28;;;;;;;;;;4820942;29;20165;-75
2023/04/19 16:39:17;;;;;;;4.63;1.85;;;;;;;;;;4824104;29;20487;-77
2023/04/19 16:42:07;;;;;;;4.03;1.80;;;;;;;;;;4838411;29;20521;-79
2023/04/19 16:47:56;;;;;;;6.57;2.45;;;;;;;;;;4828212;29;20030;-79
2023/04/19 16:50:53;;;;;;;4.00;1.98;;;;;;;;;;4838340;29;20404;-78
2023/04/19 16:53:37;;;;;;;3.55;1.67;;;;;;;;;;4822325;29;20491;-79
2023/04/19 16:56:38;;;;;;;;;;;;;;;;;;;;;
2023/04/19 16:59:15;;;;;;;7.50;1.80;;;;;;;;;;4818893;29;20125;-79
2023/04/19 17:02:11;;;;;;;3.30;1.50;;;;;;;;;;4805269;29;20042;-79
2023/04/19 17:04:42;;;;;;;3.38;1.75;;;;;;;;;;4823469;29;20056;-79
2023/04/19 17:07:14;;;;;;;4.55;1.80;;;;;;;;;;4802941;29;20072;-79
2023/04/19 17:09:49;;;;;;;4.63;1.77;;;;;;;;;;4824199;29;20137;-80
2023/04/19 17:15:51;;;;;;;;;;;;;;;;;;;;;
2023/04/19 17:18:18;;;;;;;35.78;21.42;;;;;;;;;;4825091;29;20049;-76
2023/04/19 17:20:53;;;;;;;9.80;4.47;;;;;;;;;;4821775;29;20027;-77
2023/04/19 17:23:20;;;;;;;3.40;2.05;;;;;;;;;;4822151;29;20042;-76
2023/04/19 17:25:55;;;;;;;4.05;1.70;;;;;;;;;;4830741;29;20041;-77
2023/04/19 17:28:24;;;;;;;2.92;1.77;;;;;;;;;;4812065;29;21480;-80
2023/04/19 17:30:58;;;;;;;6.70;1.85;;;;;;;;;;4861724;29;20038;-81
2023/04/19 17:33:58;;;;;;;5.40;2.10;;;;;;;;;;4822557;29;20412;-82
2023/04/19 17:36:24;;;;;;;4.20;1.88;;;;;;;;;;4834322;29;20555;-83
2023/04/19 17:45:09;;;;;;;5.03;1.75;;;;;;;;;;4813145;29;20049;-81
2023/04/19 17:47:35;;;;;;;9.13;2.17;;;;;;;;;;4810336;29;20086;-83
2023/04/19 17:50:11;;;;;;;11.48;6.65;;;;;;;;;;4785522;29;20068;-78
2023/04/19 17:52:40;;;;;;;7.30;3.58;;;;;;;;;;4815013;29;20039;-76
2023/04/19 17:55:06;;;;;;;5.53;2.10;;;;;;;;;;4815865;29;20365;-83
2023/04/19 17:57:33;;;;;;;6.00;2.22;;;;;;;;;;4789994;29;20528;-83
2023/04/19 18:00:03;;;;;;;7.40;2.10;;;;;;;;;;4793704;29;20051;-85
2023/04/19 18:02:29;;;;;;;6.40;2.53;;;;;;;;;;4822007;29;20034;-83
2023/04/19 18:04:55;;;;;;;5.40;2.20;;;;;;;;;;4812321;29;20041;-88
2023/04/19 18:07:21;;;;;;;4.90;2.03;;;;;;;;;;4818705;29;20022;-82
2023/04/19 18:09:47;;;;;;;6.28;2.15;;;;;;;;;;4800137;29;20091;-86
2023/04/19 18:12:13;;;;;;;6.93;2.97;;;;;;;;;;4799511;29;20109;-77
2023/04/19 18:14:39;;;;;;;6.57;1.90;;;;;;;;;;4815841;29;20092;-77
2023/04/19 18:17:06;;;;;;;7.65;2.28;;;;;;;;;;4786445;29;20049;-81
2023/04/19 18:19:32;;;;;;;3.60;1.92;;;;;;;;;;4789723;29;20054;-77
2023/04/19 18:21:58;;;;;;;4.50;2.20;;;;;;;;;;4813935;29;20496;-77
2023/04/19 18:24:24;;;;;;;7.82;1.98;;;;;;;;;;4810663;29;20037;-76
2023/04/19 18:26:50;;;;;;;8.82;2.33;;;;;;;;;;4803404;29;20035;-76
2023/04/19 18:29:18;;;;;;;7.90;2.20;;;;;;;;;;4803211;29;20209;-77
2023/04/19 18:31:44;;;;;;;4.15;1.83;;;;;;;;;;4803907;29;20125;-80
2023/04/19 18:34:10;;;;;;;5.60;2.75;;;;;;;;;;4811679;29;20045;-82
2023/04/19 18:36:36;;;;;;;6.65;2.67;;;;;;;;;;4812252;29;20061;-83
2023/04/19 18:39:02;;;;;;;4.78;2.22;;;;;;;;;;4809825;29;20512;-86
2023/04/19 18:41:28;;;;;;;10.10;2.00;;;;;;;;;;4803170;29;20031;-85
2023/04/19 18:47:12;;;;;;;4.05;3.08;;;;;;;;;;4788511;29;20124;-83
2023/04/19 18:49:38;;;;;;;12.27;4.05;;;;;;;;;;4787299;29;20088;-85
2023/04/19 18:52:04;;;;;;;7.07;3.08;;;;;;;;;;4804257;29;20026;-80
2023/04/19 18:54:37;;;;;;;5.88;4.22;;;;;;;;;;4801907;29;20031;-82
2023/04/19 18:57:03;;;;;;;6.97;2.90;;;;;;;;;;4808985;29;20401;-89
2023/04/19 18:59:29;;;;;;;5.15;2.60;;;;;;;;;;4810074;29;20027;-83
2023/04/19 19:01:56;;;;;;;3.65;2.38;;;;;;;;;;4803800;29;20034;-83
2023/04/19 19:04:24;;;;;;;5.43;2.28;;;;;;;;;;4787538;29;20073;-83
2023/04/19 19:07:10;;;;;;;5.45;2.20;;;;;;;;;;4813219;29;20532;-84
2023/04/19 19:09:36;;;;;;;3.53;2.55;;;;;;;;;;4820553;29;20386;-82
2023/04/19 19:12:02;;;;;;;4.75;2.10;;;;;;;;;;4821718;29;20519;-83
2023/04/19 19:14:35;;;;;;;6.78;2.10;;;;;;;;;;4801518;29;20034;-81
2023/04/19 19:17:02;;;;;;;9.15;2.35;;;;;;;;;;4795769;29;20084;-81
2023/04/19 19:19:28;;;;;;;5.70;2.30;;;;;;;;;;4812055;29;20068;-78
2023/04/19 19:47:17;;;;;;;3.08;2.20;;;;;;;;;;4935588;24;20072;-75
2023/04/19 19:49:43;;;;;;;5.75;2.03;;;;;;;;;;4809750;29;20053;-77
2023/04/19 19:52:09;;;;;;;4.00;2.40;;;;;;;;;;4813127;29;20034;-77
2023/04/19 19:54:35;;;;;;;6.05;2.00;;;;;;;;;;4801702;29;20031;-76
2023/04/19 19:57:01;;;;;;;4.03;2.30;;;;;;;;;;4786320;29;20039;-80
2023/04/19 19:59:28;;;;;;;4.32;2.50;;;;;;;;;;4784105;29;20042;-79
2023/04/19 20:01:57;;;;;;;3.75;2.40;;;;;;;;;;4816225;29;20353;-75
2023/04/19 20:04:23;;;;;;;3.97;2.10;;;;;;;;;;4807782;29;20030;-79
2023/04/19 20:06:50;;;;;;;5.03;2.13;;;;;;;;;;4794343;29;20474;-78
2023/04/19 20:09:16;;;;;;;5.60;2.60;;;;;;;;;;4801813;29;20050;-76
2023/04/19 20:11:42;;;;;;;8.07;3.22;;;;;;;;;;4787843;29;20038;-76
2023/04/19 20:14:08;;;;;;;6.07;2.70;;;;;;;;;;4803726;29;20026;-81
2023/04/19 20:16:34;;;;;;;8.43;2.60;;;;;;;;;;4804259;29;20034;-78
2023/04/19 20:19:06;;;;;;;8.50;2.30;;;;;;;;;;4802018;29;20042;-79
2023/04/19 20:21:32;;;;;;;7.72;2.33;;;;;;;;;;4800997;29;20430;-81
2023/04/19 20:23:59;;;;;;;3.97;2.13;;;;;;;;;;4792316;29;20790;-78
2023/04/19 20:26:25;;;;;;;2.80;2.40;;;;;;;;;;4796182;29;20030;-79
2023/04/19 20:28:51;;;;;;;32.13;17.80;;;;;;;;;;4794575;29;20389;-73
2023/04/19 20:31:17;;;;;;;19.15;9.52;;;;;;;;;;4795706;29;20027;-74
2023/04/19 20:33:45;;;;;;;18.50;9.55;;;;;;;;;;4818249;29;20432;-73
2023/04/19 20:36:15;;;;;;;7.15;3.10;;;;;;;;;;4799253;29;20033;-79
2023/04/19 20:41:50;;;;;;;3.10;2.60;;;;;;;;;;4815373;29;20025;-77
2023/04/19 20:44:17;;;;;;;6.53;2.83;;;;;;;;;;4795691;29;20039;-77
2023/04/19 20:46:43;;;;;;;5.65;2.67;;;;;;;;;;4801149;29;20082;-78
2023/04/19 20:49:09;;;;;;;5.18;2.63;;;;;;;;;;4808549;29;20125;-76
2023/04/19 20:51:38;;;;;;;7.80;2.95;;;;;;;;;;4782177;29;20301;-78
2023/04/19 20:54:04;;;;;;;4.32;2.75;;;;;;;;;;4812704;29;20477;-79
2023/04/19 20:56:30;;;;;;;4.57;2.67;;;;;;;;;;4788972;29;20042;-78
2023/04/19 20:58:56;;;;;;;10.93;3.15;;;;;;;;;;4794657;29;20039;-77
2023/04/19 21:01:32;;;;;;;5.50;2.67;;;;;;;;;;4816456;29;20035;-76
2023/04/19 21:03:58;;;;;;;11.05;2.72;;;;;;;;;;4798395;29;20038;-77
2023/04/19 21:06:25;;;;;;;8.07;2.63;;;;;;;;;;4806021;29;20091;-79
2023/04/19 21:08:51;;;;;;;7.10;2.33;;;;;;;;;;4797771;29;20059;-81
2023/04/19 21:11:18;;;;;;;3.15;2.78;;;;;;;;;;4810503;29;20124;-81
2023/04/19 21:13:44;;;;;;;6.75;2.70;;;;;;;;;;4796082;29;20034;-80
2023/04/19 21:16:10;;;;;;;8.60;2.63;;;;;;;;;;4810405;29;20038;-81
2023/04/19 21:18:36;;;;;;;5.18;2.33;;;;;;;;;;4794752;29;20042;-77
2023/04/19 21:21:02;;;;;;;3.28;2.30;;;;;;;;;;4798998;29;20030;-77
2023/04/19 21:23:28;;;;;;;5.72;2.50;;;;;;;;;;4813918;29;20118;-75
2023/04/19 21:25:55;;;;;;;66.25;34.85;;;;;;;;;;4798396;29;20030;-74
2023/04/19 21:28:21;;;;;;;38.90;19.75;;;;;;;;;;4787339;29;20045;-75
2023/04/19 21:30:56;;;;;;;6.00;2.30;;;;;;;;;;4811627;29;20026;-77
2023/04/19 21:33:22;;;;;;;6.75;2.88;;;;;;;;;;4796350;29;20037;-75
2023/04/19 21:35:48;;;;;;;6.55;3.03;;;;;;;;;;4784858;29;20039;-76
2023/04/19 21:38:14;;;;;;;6.18;2.75;;;;;;;;;;4816109;29;20030;-77
2023/04/19 21:40:41;;;;;;;6.65;2.60;;;;;;;;;;4801272;29;20042;-77
2023/04/19 21:43:07;;;;;;;5.18;2.83;;;;;;;;;;4794844;29;20038;-76
2023/04/19 21:45:33;;;;;;;6.47;2.30;;;;;;;;;;4799811;29;20026;-76
2023/04/19 21:47:59;;;;;;;3.58;2.30;;;;;;;;;;4791701;29;20058;-77
2023/04/19 21:50:25;;;;;;;5.43;2.30;;;;;;;;;;4836620;29;20109;-75
2023/04/19 21:52:51;;;;;;;5.30;2.58;;;;;;;;;;4832169;29;20034;-76
2023/04/19 21:55:17;;;;;;;5.22;2.72;;;;;;;;;;4837340;29;20058;-76
2023/04/19 21:57:44;;;;;;;6.72;2.85;;;;;;;;;;4832695;29;20034;-77
2023/04/19 22:00:10;;;;;;;4.53;2.85;;;;;;;;;;4836144;29;20034;-79
2023/04/19 22:02:36;;;;;;;11.48;3.03;;;;;;;;;;4833200;29;20038;-76
2023/04/19 22:05:03;;;;;;;9.10;2.92;;;;;;;;;;4836010;29;20086;-76
2023/04/19 22:07:30;;;;;;;3.58;2.45;;;;;;;;;;4835510;29;20030;-76
2023/04/19 22:09:57;;;;;;;10.52;2.80;;;;;;;;;;4836948;29;20045;-78
2023/04/19 22:12:23;;;;;;;4.05;2.17;;;;;;;;;;4848598;29;20128;-76
2023/04/19 22:14:52;;;;;;;4.22;2.58;;;;;;;;;;4831781;29;20103;-76
2023/04/19 22:17:19;;;;;;;4.13;2.60;;;;;;;;;;4833949;29;20058;-77
2023/04/19 22:19:45;;;;;;;7.25;2.75;;;;;;;;;;4834115;29;20468;-78
2023/04/19 22:22:12;;;;;;;5.32;3.40;;;;;;;;;;4832170;29;20029;-76
2023/04/19 22:24:38;;;;;;;4.75;2.58;;;;;;;;;;4835704;29;20105;-75
2023/04/19 22:27:04;;;;;;;4.38;2.63;;;;;;;;;;4835938;29;20710;-76
2023/04/19 22:29:35;;;;;;;4.40;2.53;;;;;;;;;;4819378;29;20396;-76
2023/04/19 22:32:03;;;;;;;4.25;2.25;;;;;;;;;;4834169;29;20030;-76
2023/04/19 22:34:30;;;;;;;6.78;2.10;;;;;;;;;;4818690;29;20042;-75
2023/04/19 22:36:57;;;;;;;5.25;2.15;;;;;;;;;;4834138;29;20102;-76